Terminal Aerodrome Forecast
Issued by NWS

Home | Current Version | Previous Version | Text Only | Print | Product List | Glossary On
Versions: 1 2 3 4 5 6 7 8 9 10 11 12 13 14 15 16 17 18 19 20 21 22 23 24 25 26 27 28
000
FTUS45 KGGW 261131
TAFGDV
TAF
KGDV 261131Z 2612/2712 18005KT 1/4SM FZFG BKN002
     FM261500 23006KT P6SM OVC015
     FM270000 33008KT P6SM SCT030 OVC040
     FM270700 04006KT P6SM VCSH SCT013 OVC015=

USA.gov is the U.S. government's official web portal to all federal, state and local government web resources and services.